Time;durP1;ratioP1;P1;durP2;ratioP2;P2;SDS_P1;SDS_P2;PMS_P1;PMS_P2;Temp;Humidity;BMP_temperature;BMP_pressure;BME280_temperature;BME280_humidity;BME280_pressure;Samples;Min_cycle;Max_cycle;Signal;HPM_P1;HPM_P2
2022/01/22 00:02:07;;;;;;;1.23;0.82;;;19.20;46.80;;;;;;6190831;28;20112;-69
2022/01/22 00:05:10;;;;;;;1.50;1.10;;;19.20;46.80;;;;;;6190935;28;20054;-69
2022/01/22 00:08:10;;;;;;;1.30;0.65;;;19.20;46.80;;;;;;6191700;28;20028;-69
2022/01/22 00:11:11;;;;;;;1.42;0.80;;;19.20;46.90;;;;;;6191747;28;20046;-70
2022/01/22 00:14:23;;;;;;;1.08;0.85;;;19.20;46.80;;;;;;6191458;28;20038;-69
2022/01/22 00:17:24;;;;;;;1.23;0.80;;;19.20;46.80;;;;;;6192086;28;20031;-69
2022/01/22 00:20:26;;;;;;;1.27;0.70;;;19.20;46.70;;;;;;6192022;28;20026;-70
2022/01/22 00:23:28;;;;;;;1.65;0.80;;;19.20;46.80;;;;;;6191226;28;20031;-69
2022/01/22 00:26:28;;;;;;;1.58;0.75;;;19.20;46.90;;;;;;6192258;28;20708;-70
2022/01/22 00:29:29;;;;;;;1.05;0.63;;;19.20;46.80;;;;;;6192157;28;20042;-70
2022/01/22 00:32:29;;;;;;;1.15;0.75;;;19.20;47.00;;;;;;6191488;28;20035;-69
2022/01/22 00:35:30;;;;;;;0.93;0.70;;;19.20;46.90;;;;;;6192520;28;20470;-69
2022/01/22 00:38:31;;;;;;;0.70;0.50;;;19.20;46.90;;;;;;6201401;28;20034;-69
2022/01/22 00:41:32;;;;;;;1.15;0.80;;;19.20;46.90;;;;;;6196726;28;20026;-69
2022/01/22 00:44:32;;;;;;;0.73;0.63;;;19.20;46.90;;;;;;6196858;28;20115;-69
2022/01/22 00:47:33;;;;;;;0.88;0.73;;;19.20;46.90;;;;;;6196791;28;20034;-69
2022/01/22 00:50:34;;;;;;;0.75;0.65;;;19.20;46.90;;;;;;6196324;28;20034;-69
2022/01/22 00:53:34;;;;;;;1.50;0.80;;;19.20;46.90;;;;;;6195949;28;20030;-69
2022/01/22 00:56:35;;;;;;;1.23;0.80;;;19.20;46.90;;;;;;6196038;28;20041;-69
2022/01/22 00:59:35;;;;;;;1.05;0.60;;;19.20;46.90;;;;;;6196494;28;20030;-69
2022/01/22 01:02:36;;;;;;;1.67;0.90;;;19.20;46.90;;;;;;6195752;28;20034;-69
2022/01/22 01:05:37;;;;;;;0.93;0.70;;;19.20;47.00;;;;;;6196095;28;20138;-69
2022/01/22 01:08:38;;;;;;;0.65;0.52;;;19.20;46.90;;;;;;6195556;28;20034;-69
2022/01/22 01:11:45;;;;;;;0.73;0.60;;;19.20;47.00;;;;;;6210806;28;20054;-69
2022/01/22 01:15:12;;;;;;;0.82;0.70;;;19.20;47.70;;;;;;6195756;28;20022;-69
2022/01/22 01:34:26;;;;;;;1.02;0.70;;;19.20;46.90;;;;;;6195279;28;20027;-69
2022/01/22 01:37:26;;;;;;;1.05;0.70;;;19.20;47.00;;;;;;6200867;28;20064;-69
2022/01/22 01:40:29;;;;;;;1.23;0.80;;;19.20;47.70;;;;;;6197369;28;20033;-69
2022/01/22 01:43:35;;;;;;;0.98;0.60;;;19.20;47.00;;;;;;6195194;28;20552;-69
2022/01/22 01:46:35;;;;;;;1.00;0.70;;;19.20;47.00;;;;;;6195252;28;20026;-70
2022/01/22 01:49:36;;;;;;;1.50;0.65;;;19.10;46.80;;;;;;6194613;28;20425;-69
2022/01/22 01:52:44;;;;;;;0.95;0.65;;;19.20;46.90;;;;;;6187537;28;20034;-71
2022/01/22 01:58:59;;;;;;;0.88;0.60;;;19.10;46.90;;;;;;6195053;28;20053;-69
2022/01/22 02:02:00;;;;;;;0.77;0.60;;;19.10;46.90;;;;;;6201427;28;20103;-69
2022/01/22 02:05:00;;;;;;;1.00;0.60;;;19.20;46.90;;;;;;6194560;28;20033;-70
2022/01/22 02:08:01;;;;;;;0.85;0.68;;;19.10;46.90;;;;;;6194316;28;20469;-69
2022/01/22 02:11:04;;;;;;;0.85;0.60;;;19.10;46.90;;;;;;6194423;28;20141;-69
2022/01/22 02:23:28;;;;;;;0.98;0.50;;;19.20;47.00;;;;;;6193805;28;20049;-69
2022/01/22 02:24:04;;;;;;;0.70;0.57;;;19.10;46.90;;;;;;6193143;28;20026;-69
2022/01/22 02:27:05;;;;;;;0.70;0.70;;;19.20;47.70;;;;;;6194213;28;20022;-69
2022/01/22 02:30:06;;;;;;;1.77;0.45;;;19.10;46.80;;;;;;6194192;28;20035;-69
2022/01/22 02:36:25;;;;;;;0.50;0.50;;;19.20;46.90;;;;;;6194662;28;20098;-70
2022/01/22 02:39:39;;;;;;;0.55;0.47;;;19.10;46.80;;;;;;6193903;28;20022;-69
2022/01/22 02:42:42;;;;;;;0.63;0.57;;;19.10;46.90;;;;;;6193967;28;20121;-69
2022/01/22 02:45:46;;;;;;;0.82;0.40;;;19.10;46.80;;;;;;6193804;28;20782;-69
2022/01/22 02:48:46;;;;;;;0.85;0.60;;;19.10;46.80;;;;;;6193451;28;20473;-69
2022/01/22 02:51:47;;;;;;;0.73;0.50;;;19.10;46.90;;;;;;6191878;28;21123;-70
2022/01/22 02:54:48;;;;;;;0.85;0.70;;;19.10;46.90;;;;;;6185986;28;20030;-69
2022/01/22 02:57:49;;;;;;;0.65;0.50;;;19.20;46.90;;;;;;6192627;28;20458;-69
2022/01/22 03:00:50;;;;;;;0.65;0.52;;;19.10;46.90;;;;;;6191250;28;20026;-69
2022/01/22 03:03:50;;;;;;;0.65;0.57;;;19.10;46.90;;;;;;6192893;28;20038;-70
2022/01/22 03:06:51;;;;;;;0.68;0.45;;;19.10;46.90;;;;;;6193570;28;20113;-69
2022/01/22 03:09:53;;;;;;;0.63;0.55;;;19.10;46.90;;;;;;6207539;28;20069;-69
2022/01/22 03:29:03;;;;;;;1.52;0.68;;;19.10;46.90;;;;;;6192668;28;20046;-70
2022/01/22 03:32:06;;;;;;;0.68;0.50;;;19.10;46.90;;;;;;6192508;28;20069;-70
2022/01/22 03:35:11;;;;;;;0.60;0.47;;;19.10;46.90;;;;;;6192506;28;20022;-69
2022/01/22 03:38:11;;;;;;;0.50;0.50;;;19.10;46.90;;;;;;6199866;28;20034;-69
2022/01/22 03:41:12;;;;;;;0.50;0.43;;;19.10;46.90;;;;;;6192594;28;20026;-69
2022/01/22 03:44:13;;;;;;;1.33;0.57;;;19.10;46.90;;;;;;6192243;28;20065;-69
2022/01/22 03:47:13;;;;;;;0.40;0.38;;;19.10;46.90;;;;;;6192293;28;20037;-69
2022/01/22 03:50:16;;;;;;;0.73;0.50;;;19.10;46.90;;;;;;6192321;28;20042;-69
2022/01/22 03:53:17;;;;;;;0.40;0.30;;;19.10;46.90;;;;;;6183241;28;20161;-69
2022/01/22 03:56:17;;;;;;;0.80;0.60;;;19.10;46.90;;;;;;6191158;28;20034;-69
2022/01/22 04:09:38;;;;;;;1.00;0.60;;;19.10;46.90;;;;;;6193237;28;20058;-70
2022/01/22 04:12:56;;;;;;;0.82;0.63;;;19.10;46.90;;;;;;6194560;28;20033;-69
2022/01/22 04:15:57;;;;;;;0.40;0.40;;;19.10;46.90;;;;;;6198804;28;20037;-69
2022/01/22 04:25:39;;;;;;;0.50;0.40;;;19.10;46.90;;;;;;6197638;28;20628;-69
2022/01/22 04:28:40;;;;;;;0.75;0.38;;;19.10;46.90;;;;;;6198684;28;20038;-69
2022/01/22 04:31:40;;;;;;;0.57;0.40;;;19.10;47.00;;;;;;6198088;28;20113;-69
2022/01/22 04:34:41;;;;;;;0.43;0.43;;;19.10;46.90;;;;;;6198243;28;20034;-69
2022/01/22 04:37:41;;;;;;;0.45;0.40;;;19.10;46.90;;;;;;6205352;28;20049;-69
2022/01/22 04:40:42;;;;;;;0.65;0.47;;;19.10;46.90;;;;;;6198730;28;20385;-70
2022/01/22 04:43:44;;;;;;;0.85;0.38;;;19.10;46.80;;;;;;6197934;28;20069;-69
2022/01/22 04:56:13;;;;;;;0.95;0.40;;;19.10;46.90;;;;;;6198451;28;20036;-69
2022/01/22 04:59:14;;;;;;;1.00;0.50;;;19.10;46.90;;;;;;6197871;28;20669;-69
2022/01/22 05:02:15;;;;;;;0.57;0.32;;;19.10;47.00;;;;;;6197549;28;20026;-69
2022/01/22 05:05:16;;;;;;;0.90;0.50;;;19.10;46.90;;;;;;6197901;28;20049;-69
2022/01/22 05:08:16;;;;;;;0.60;0.40;;;19.10;46.90;;;;;;6197343;28;20038;-69
2022/01/22 05:11:18;;;;;;;0.55;0.40;;;19.10;46.90;;;;;;6197269;28;20197;-69
2022/01/22 05:14:18;;;;;;;0.30;0.30;;;19.10;47.60;;;;;;6197288;28;20022;-70
2022/01/22 05:17:19;;;;;;;0.60;0.50;;;19.10;46.90;;;;;;6197964;28;20034;-70
2022/01/22 05:20:25;;;;;;;0.50;0.40;;;19.10;47.00;;;;;;6197611;28;20027;-69
2022/01/22 05:23:26;;;;;;;0.75;0.30;;;19.10;47.00;;;;;;6196733;28;20461;-69
2022/01/22 05:30:01;;;;;;;0.40;0.30;;;19.10;47.10;;;;;;6197302;28;20090;-69
2022/01/22 05:39:13;;;;;;;0.20;0.20;;;19.10;47.20;;;;;;6204469;28;20038;-70
2022/01/22 05:42:14;;;;;;;0.35;0.30;;;19.10;47.10;;;;;;6196560;28;20081;-69
2022/01/22 05:45:14;;;;;;;0.55;0.35;;;19.10;47.10;;;;;;6197046;28;20027;-69
2022/01/22 05:48:15;;;;;;;0.60;0.43;;;19.10;47.10;;;;;;6196840;28;20034;-69
2022/01/22 05:51:16;;;;;;;0.30;0.30;;;19.10;47.20;;;;;;6196737;28;20030;-69
2022/01/22 05:54:47;;;;;;;0.98;0.43;;;19.10;47.10;;;;;;6188628;28;20022;-69
2022/01/22 06:00:59;;;;;;;0.40;0.40;;;19.10;47.10;;;;;;6194960;28;20773;-69
2022/01/22 06:03:59;;;;;;;0.40;0.35;;;19.10;47.20;;;;;;6195953;28;20157;-69
2022/01/22 06:07:03;;;;;;;0.50;0.40;;;19.10;47.20;;;;;;6196482;28;20091;-70
2022/01/22 06:10:15;;;;;;;0.40;0.40;;;19.10;47.20;;;;;;6196144;28;20096;-69
2022/01/22 06:13:20;;;;;;;0.45;0.40;;;19.20;47.30;;;;;;6195922;28;20061;-69
2022/01/22 06:16:23;;;;;;;0.43;0.40;;;19.20;47.20;;;;;;6196505;28;20022;-69
2022/01/22 06:19:24;;;;;;;0.40;0.40;;;19.10;47.20;;;;;;6196268;28;20105;-69
2022/01/22 06:22:24;;;;;;;0.40;0.30;;;19.20;47.20;;;;;;6195927;28;20122;-70
2022/01/22 06:25:25;;;;;;;0.55;0.47;;;19.10;47.10;;;;;;6195681;28;20022;-69
2022/01/22 06:28:26;;;;;;;0.22;0.22;;;19.20;47.60;;;;;;6196243;28;20029;-68
2022/01/22 06:31:26;;;;;;;0.45;0.30;;;19.20;47.30;;;;;;6195819;28;20100;-69
2022/01/22 06:34:27;;;;;;;0.63;0.32;;;19.20;47.20;;;;;;6195457;28;20447;-69
2022/01/22 06:37:27;;;;;;;0.30;0.30;;;19.20;47.30;;;;;;6200422;28;20033;-69
2022/01/22 06:43:29;;;;;;;1.05;0.40;;;19.20;47.30;;;;;;6195233;28;20031;-69
2022/01/22 06:46:30;;;;;;;0.95;0.45;;;19.20;47.30;;;;;;6195515;28;20603;-69
2022/01/22 06:49:30;;;;;;;0.22;0.20;;;19.20;47.30;;;;;;6195206;28;20705;-70
2022/01/22 06:52:31;;;;;;;0.43;0.40;;;19.20;47.20;;;;;;6194546;28;20022;-69
2022/01/22 06:55:41;;;;;;;0.50;0.43;;;19.20;47.20;;;;;;6195220;28;20057;-70
2022/01/22 06:58:42;;;;;;;0.65;0.40;;;19.20;47.30;;;;;;6195735;28;20101;-69
2022/01/22 07:01:43;;;;;;;0.82;0.50;;;19.20;47.20;;;;;;6195037;28;20485;-69
2022/01/22 07:04:43;;;;;;;0.88;0.50;;;19.20;47.30;;;;;;6195113;28;20026;-69
2022/01/22 07:07:44;;;;;;;2.38;0.50;;;19.20;47.20;;;;;;6193234;28;20029;-69
2022/01/22 07:10:44;;;;;;;0.55;0.47;;;19.20;47.20;;;;;;6194861;28;20497;-69
2022/01/22 07:13:45;;;;;;;0.88;0.60;;;19.20;47.20;;;;;;6194780;28;20103;-69
2022/01/22 07:16:46;;;;;;;0.80;0.50;;;19.20;47.20;;;;;;6195355;28;20022;-69
2022/01/22 07:19:46;;;;;;;0.88;0.50;;;19.20;47.20;;;;;;6194797;28;20026;-69
2022/01/22 07:22:53;;;;;;;0.93;0.50;;;19.20;47.20;;;;;;6194600;28;20054;-69
2022/01/22 07:25:53;;;;;;;1.10;0.70;;;19.20;47.30;;;;;;6194881;28;20037;-70
2022/01/22 07:28:55;;;;;;;0.98;0.50;;;19.20;47.20;;;;;;6194508;28;20030;-69
2022/01/22 07:32:00;;;;;;;2.17;0.52;;;19.20;47.30;;;;;;6194361;28;20084;-69
2022/01/22 07:35:00;;;;;;;1.05;0.60;;;19.20;47.20;;;;;;6194877;28;20480;-69
2022/01/22 07:38:01;;;;;;;0.63;0.40;;;19.20;47.10;;;;;;6201804;28;20037;-69
2022/01/22 07:41:02;;;;;;;0.82;0.43;;;19.20;47.20;;;;;;6194668;28;20022;-69
2022/01/22 07:44:03;;;;;;;0.82;0.50;;;19.20;47.20;;;;;;6193917;28;20477;-69
2022/01/22 07:47:04;;;;;;;1.30;0.60;;;19.20;47.30;;;;;;6193237;28;20041;-69
2022/01/22 07:50:06;;;;;;;1.60;0.60;;;19.20;47.30;;;;;;6193195;28;20027;-69
2022/01/22 07:53:06;;;;;;;0.90;0.50;;;19.20;47.20;;;;;;6186183;28;20030;-69
2022/01/22 07:56:07;;;;;;;1.15;0.50;;;19.20;47.30;;;;;;6194359;28;20033;-70
2022/01/22 07:59:07;;;;;;;1.02;0.47;;;19.20;47.30;;;;;;6194263;28;20077;-69
2022/01/22 08:02:08;;;;;;;0.80;0.47;;;19.20;47.00;;;;;;6193738;28;20030;-69
2022/01/22 08:05:09;;;;;;;1.13;0.40;;;19.20;47.30;;;;;;6193658;28;20500;-71
2022/01/22 08:08:09;;;;;;;1.00;0.50;;;19.20;47.30;;;;;;6194291;28;20497;-69
2022/01/22 08:11:10;;;;;;;0.88;0.50;;;19.20;47.30;;;;;;6193919;28;20101;-69
2022/01/22 08:14:11;;;;;;;0.65;0.43;;;19.20;47.80;;;;;;6194065;28;20030;-69
2022/01/22 08:17:11;;;;;;;1.05;0.50;;;19.20;47.20;;;;;;6194239;28;20485;-69
2022/01/22 08:20:14;;;;;;;0.50;0.50;;;19.20;47.30;;;;;;6194477;28;20026;-70
2022/01/22 08:23:15;;;;;;;1.02;0.40;;;19.20;47.30;;;;;;6192843;28;20519;-69
2022/01/22 08:26:20;;;;;;;0.75;0.32;;;19.20;47.30;;;;;;6193645;28;20026;-70
2022/01/22 08:29:20;;;;;;;0.43;0.30;;;19.20;47.30;;;;;;6193677;28;20410;-69
2022/01/22 08:38:43;;;;;;;0.60;0.40;;;19.20;47.30;;;;;;6200843;28;20053;-69
2022/01/22 08:41:44;;;;;;;0.73;0.32;;;19.20;47.30;;;;;;6193214;28;20032;-69
2022/01/22 08:44:46;;;;;;;0.43;0.40;;;19.20;47.20;;;;;;6193835;28;20088;-69
2022/01/22 08:47:47;;;;;;;0.60;0.45;;;19.20;47.30;;;;;;6194199;28;20026;-69
2022/01/22 08:50:48;;;;;;;0.47;0.40;;;19.20;47.20;;;;;;6193502;28;20065;-69
2022/01/22 08:53:49;;;;;;;1.10;0.40;;;19.20;47.20;;;;;;6185089;28;20540;-69
2022/01/22 08:56:50;;;;;;;0.40;0.40;;;19.20;47.30;;;;;;6193929;28;20034;-69
2022/01/22 08:59:50;;;;;;;0.70;0.50;;;19.20;47.20;;;;;;6196248;28;20551;-69
2022/01/22 09:02:51;;;;;;;0.93;0.50;;;19.20;47.30;;;;;;6196037;28;20032;-69
2022/01/22 09:05:52;;;;;;;0.57;0.40;;;19.20;47.20;;;;;;6213297;28;20504;-69
2022/01/22 09:08:59;;;;;;;1.00;0.65;;;19.20;47.20;;;;;;6197321;28;20026;-69
2022/01/22 09:12:00;;;;;;;0.90;0.40;;;19.20;47.30;;;;;;6197425;28;20031;-69
2022/01/22 09:15:01;;;;;;;0.65;0.50;;;19.20;47.20;;;;;;6197689;28;20031;-69
2022/01/22 09:18:02;;;;;;;1.15;0.52;;;19.20;47.10;;;;;;6197750;28;20482;-69
2022/01/22 09:21:04;;;;;;;0.88;0.47;;;19.20;47.20;;;;;;6198026;28;20023;-70
2022/01/22 09:24:05;;;;;;;0.95;0.60;;;19.20;47.30;;;;;;6197214;28;20034;-70
2022/01/22 09:27:07;;;;;;;0.50;0.30;;;19.20;47.30;;;;;;6197705;28;20543;-70
2022/01/22 09:30:08;;;;;;;0.65;0.57;;;19.20;47.30;;;;;;6196933;28;20042;-70
2022/01/22 09:33:08;;;;;;;0.57;0.40;;;19.20;47.30;;;;;;6196684;28;20030;-69
2022/01/22 09:36:09;;;;;;;1.08;0.50;;;19.20;47.30;;;;;;6197319;28;20033;-69
2022/01/22 09:39:10;;;;;;;0.70;0.47;;;19.20;47.30;;;;;;6204294;28;20312;-69
2022/01/22 09:42:10;;;;;;;0.80;0.50;;;19.20;47.30;;;;;;6196458;28;20041;-70
2022/01/22 09:45:12;;;;;;;1.55;0.40;;;19.20;47.40;;;;;;6197161;28;20037;-69
2022/01/22 09:48:13;;;;;;;0.75;0.35;;;19.20;47.30;;;;;;6196694;28;20022;-69
2022/01/22 09:51:14;;;;;;;0.40;0.40;;;19.20;47.40;;;;;;6196822;28;20039;-69
2022/01/22 09:54:14;;;;;;;0.47;0.38;;;19.20;47.40;;;;;;6189104;28;20022;-69
2022/01/22 09:57:15;;;;;;;0.75;0.50;;;19.20;47.50;;;;;;6197071;28;20053;-69
2022/01/22 10:00:19;;;;;;;0.50;0.50;;;19.20;47.40;;;;;;6196673;28;20023;-69
2022/01/22 10:03:20;;;;;;;0.70;0.50;;;19.20;47.40;;;;;;6196201;28;20026;-71
2022/01/22 10:06:27;;;;;;;0.35;0.35;;;19.20;47.50;;;;;;6196478;28;20054;-69
2022/01/22 10:09:34;;;;;;;0.55;0.40;;;19.20;47.50;;;;;;6195030;28;20046;-69
2022/01/22 10:12:44;;;;;;;0.45;0.40;;;19.20;47.50;;;;;;6194796;28;20092;-70
2022/01/22 10:15:44;;;;;;;0.57;0.55;;;19.20;47.50;;;;;;6196136;28;20048;-69
2022/01/22 10:18:46;;;;;;;0.55;0.32;;;19.20;47.50;;;;;;6196287;28;20109;-69
2022/01/22 10:21:57;;;;;;;0.70;0.50;;;19.20;47.50;;;;;;6187703;28;20077;-70
2022/01/22 10:24:59;;;;;;;1.85;0.60;;;19.20;47.50;;;;;;6195122;28;20028;-69
2022/01/22 10:28:06;;;;;;;0.85;0.50;;;19.20;47.50;;;;;;6196033;28;20066;-70
2022/01/22 10:31:10;;;;;;;1.23;0.50;;;19.20;47.60;;;;;;6196066;28;20030;-69
2022/01/22 10:34:12;;;;;;;0.20;0.20;;;19.20;47.60;;;;;;6195243;28;20034;-69
2022/01/22 10:37:13;;;;;;;0.63;0.35;;;19.20;47.60;;;;;;6199258;28;20054;-69
2022/01/22 10:40:23;;;;;;;0.90;0.40;;;19.20;47.60;;;;;;6199030;28;20026;-69
2022/01/22 10:43:29;;;;;;;0.55;0.50;;;19.20;47.60;;;;;;6195250;28;20019;-70
2022/01/22 10:49:44;;;;;;;0.50;0.38;;;19.20;47.60;;;;;;6196240;28;20041;-71
2022/01/22 10:52:50;;;;;;;1.58;0.50;;;19.20;47.60;;;;;;6185731;28;20019;-69
2022/01/22 10:56:04;;;;;;;2.72;0.55;;;19.20;47.50;;;;;;6171783;28;20030;-70
2022/01/22 10:59:07;;;;;;;3.20;1.15;;;19.20;46.30;;;;;;6171166;28;20033;-69
2022/01/22 11:02:08;;;;;;;6.65;1.42;;;19.10;44.80;;;;;;6171116;28;20106;-70
2022/01/22 11:05:09;;;;;;;4.15;1.30;;;19.10;43.40;;;;;;6190142;28;20081;-69
2022/01/22 11:08:13;;;;;;;3.15;1.10;;;19.10;42.30;;;;;;6194882;28;20030;-69
2022/01/22 11:11:14;;;;;;;4.30;1.30;;;19.10;41.50;;;;;;6194200;28;20539;-69
2022/01/22 11:14:15;;;;;;;5.38;1.50;;;19.10;41.30;;;;;;6195020;28;20042;-69
2022/01/22 11:17:18;;;;;;;9.93;1.83;;;19.00;41.00;;;;;;6194671;28;20105;-69
2022/01/22 11:20:19;;;;;;;4.07;1.55;;;19.10;40.90;;;;;;6195551;28;20081;-69
2022/01/22 11:23:20;;;;;;;4.88;1.52;;;19.10;40.80;;;;;;6194169;28;20054;-69
2022/01/22 11:26:20;;;;;;;4.45;0.93;;;19.10;40.70;;;;;;6195098;28;20856;-70
2022/01/22 11:29:26;;;;;;;3.38;1.42;;;19.10;41.80;;;;;;6194953;28;20037;-69
2022/01/22 11:32:28;;;;;;;;;;;19.00;41.50;;;;;;6194516;28;20034;-69
2022/01/22 11:35:37;;;;;;;6.60;1.90;;;19.00;40.50;;;;;;6193972;28;20496;-69
2022/01/22 11:38:40;;;;;;;5.82;1.40;;;19.00;40.20;;;;;;6208094;28;20106;-69
2022/01/22 11:41:54;;;;;;;4.50;1.50;;;19.00;40.00;;;;;;6199496;28;20168;-69
2022/01/22 11:45:02;;;;;;;4.32;1.55;;;19.00;39.90;;;;;;6189687;28;20109;-69
2022/01/22 11:48:24;;;;;;;4.13;1.60;;;19.00;39.70;;;;;;6194456;28;20454;-69
2022/01/22 11:51:25;;;;;;;3.22;1.17;;;19.00;39.70;;;;;;6194033;28;20051;-70
2022/01/22 11:54:25;;;;;;;2.83;1.00;;;19.00;39.70;;;;;;6173909;28;20027;-69
2022/01/22 11:57:31;;;;;;;3.95;1.23;;;19.00;39.20;;;;;;6193830;28;20026;-69
2022/01/22 12:00:39;;;;;;;4.20;1.42;;;19.00;38.90;;;;;;6194709;28;20113;-69
2022/01/22 12:03:56;;;;;;;4.50;1.38;;;19.00;39.10;;;;;;6192504;28;20033;-70
2022/01/22 12:07:06;;;;;;;6.20;1.60;;;18.90;38.90;;;;;;6194473;28;20026;-69
2022/01/22 12:10:19;;;;;;;3.33;1.17;;;18.90;38.90;;;;;;6193690;28;20085;-69
2022/01/22 12:16:50;;;;;;;4.25;1.20;;;18.90;38.90;;;;;;6194405;28;20035;-70
2022/01/22 12:20:05;;;;;;;6.68;1.83;;;18.90;38.90;;;;;;6194196;28;20030;-70
2022/01/22 12:23:08;;;;;;;3.95;1.60;;;18.90;38.70;;;;;;6192417;28;20022;-69
2022/01/22 12:26:08;;;;;;;4.65;1.45;;;18.90;38.30;;;;;;6193769;28;20033;-69
2022/01/22 12:29:30;;;;;;;5.13;1.52;;;18.90;37.50;;;;;;6194140;28;20058;-69
2022/01/22 12:32:46;;;;;;;2.80;1.33;;;18.90;37.70;;;;;;6191787;28;20041;-69
2022/01/22 12:35:48;;;;;;;4.55;1.58;;;19.00;38.30;;;;;;6198625;28;20157;-69
2022/01/22 12:39:03;;;;;;;5.13;1.25;;;19.00;38.90;;;;;;6214906;28;20101;-69
2022/01/22 12:42:11;;;;;;;3.97;1.30;;;19.00;39.40;;;;;;6222732;28;20033;-70
2022/01/22 12:45:12;;;;;;;3.85;0.90;;;19.00;39.80;;;;;;6199337;28;20030;-69
2022/01/22 12:48:14;;;;;;;4.90;1.13;;;19.00;40.10;;;;;;6198068;28;20027;-70
2022/01/22 12:51:14;;;;;;;3.55;1.30;;;19.00;40.40;;;;;;6198217;28;20074;-69
2022/01/22 12:54:29;;;;;;;4.82;1.10;;;19.00;40.70;;;;;;6197832;28;20154;-69
2022/01/22 12:57:30;;;;;;;5.15;1.35;;;19.00;41.00;;;;;;6198358;28;20026;-69
2022/01/22 13:00:30;;;;;;;1.42;0.80;;;19.10;41.30;;;;;;6198719;28;20033;-69
2022/01/22 13:03:37;;;;;;;3.30;1.00;;;19.10;41.40;;;;;;6197609;28;20485;-69
2022/01/22 13:06:45;;;;;;;4.55;1.10;;;19.10;41.60;;;;;;6198072;28;20485;-69
2022/01/22 13:09:48;;;;;;;6.38;1.45;;;19.10;41.90;;;;;;6184113;28;20046;-69
2022/01/22 13:12:49;;;;;;;4.30;1.10;;;19.10;42.00;;;;;;6187509;28;20381;-68
2022/01/22 13:16:04;;;;;;;4.38;0.90;;;19.10;42.10;;;;;;6197740;28;20034;-69
2022/01/22 13:19:05;;;;;;;1.38;0.70;;;19.10;42.40;;;;;;6197058;28;20022;-70
2022/01/22 13:22:06;;;;;;;2.33;1.00;;;19.10;42.50;;;;;;6195035;28;20464;-69
2022/01/22 13:25:12;;;;;;;1.67;0.70;;;19.10;42.70;;;;;;6198091;28;20057;-69
2022/01/22 13:28:15;;;;;;;2.03;0.88;;;19.10;42.80;;;;;;6197647;28;20040;-69
2022/01/22 13:31:17;;;;;;;2.53;0.90;;;19.10;42.90;;;;;;6197074;28;20531;-69
2022/01/22 13:34:29;;;;;;;2.03;0.90;;;19.10;43.00;;;;;;6197101;28;20073;-69
2022/01/22 13:38:00;;;;;;;1.98;0.65;;;19.10;43.10;;;;;;6203011;28;20034;-69
2022/01/22 13:47:47;;;;;;;1.65;0.90;;;19.10;43.40;;;;;;6221726;28;20026;-69
2022/01/22 13:50:48;;;;;;;1.35;0.63;;;19.10;43.50;;;;;;6198050;28;20041;-69
2022/01/22 13:53:49;;;;;;;3.28;0.80;;;19.10;43.60;;;;;;6195895;28;20097;-69
2022/01/22 13:56:57;;;;;;;1.58;0.70;;;19.10;43.70;;;;;;6196800;28;20022;-69
2022/01/22 13:59:57;;;;;;;2.08;0.73;;;19.10;43.60;;;;;;6196662;28;20032;-69
2022/01/22 14:03:20;;;;;;;1.30;0.70;;;19.10;43.70;;;;;;6209626;28;20717;-69
2022/01/22 14:06:31;;;;;;;1.38;0.90;;;19.10;43.80;;;;;;6195517;28;20027;-69
2022/01/22 14:09:32;;;;;;;2.53;0.70;;;19.10;43.90;;;;;;6196204;28;20046;-69
2022/01/22 14:12:50;;;;;;;1.70;0.85;;;19.10;43.90;;;;;;6195852;28;20037;-69
2022/01/22 14:15:51;;;;;;;1.60;0.60;;;19.10;43.90;;;;;;6196729;28;20034;-69
2022/01/22 14:18:52;;;;;;;1.05;0.60;;;19.10;44.00;;;;;;6196850;28;20393;-69
2022/01/22 14:21:56;;;;;;;1.10;0.60;;;19.10;44.10;;;;;;6210830;28;20072;-69
2022/01/22 14:25:13;;;;;;;1.75;0.80;;;19.10;44.20;;;;;;6195382;28;20023;-69
2022/01/22 14:28:13;;;;;;;1.02;0.60;;;19.10;44.20;;;;;;6196781;28;20030;-69
2022/01/22 14:31:32;;;;;;;1.63;0.70;;;19.10;44.30;;;;;;6196007;28;20049;-69
2022/01/22 14:34:39;;;;;;;0.70;0.50;;;19.10;44.30;;;;;;6195712;28;20172;-69
2022/01/22 14:37:39;;;;;;;2.03;0.80;;;19.10;44.30;;;;;;6203431;28;20037;-69
2022/01/22 14:47:24;;;;;;;2.50;0.80;;;19.10;44.50;;;;;;6196538;28;20057;-69
2022/01/22 14:50:29;;;;;;;1.33;0.63;;;19.10;44.50;;;;;;6195929;28;20048;-69
2022/01/22 14:53:30;;;;;;;1.42;0.70;;;19.10;44.60;;;;;;6194907;28;20033;-69
2022/01/22 14:56:30;;;;;;;4.28;0.63;;;19.10;44.70;;;;;;6194571;28;20034;-68
2022/01/22 14:59:33;;;;;;;1.35;0.88;;;19.10;44.70;;;;;;6195665;28;20023;-69
2022/01/22 15:02:35;;;;;;;0.98;0.60;;;19.10;44.70;;;;;;6193325;28;20026;-69
2022/01/22 15:05:37;;;;;;;1.02;0.60;;;19.10;44.80;;;;;;6195207;28;20081;-69
2022/01/22 15:08:38;;;;;;;1.00;0.40;;;19.10;44.80;;;;;;6178200;28;20038;-68
2022/01/22 15:11:38;;;;;;;1.77;0.63;;;19.10;44.90;;;;;;6188521;28;20082;-69
2022/01/22 15:14:40;;;;;;;0.85;0.35;;;19.20;44.90;;;;;;6192732;28;20509;-68
2022/01/22 15:20:50;;;;;;;0.88;0.50;;;19.10;45.00;;;;;;6191835;28;20366;-69
2022/01/22 15:23:50;;;;;;;0.88;0.70;;;19.10;45.00;;;;;;6191938;28;20038;-69
2022/01/22 15:26:51;;;;;;;0.60;0.50;;;19.10;45.00;;;;;;6196450;28;20429;-69
2022/01/22 15:33:15;;;;;;;0.65;0.45;;;19.20;45.10;;;;;;6193271;28;20493;-69
2022/01/22 15:36:16;;;;;;;2.17;0.70;;;19.20;45.10;;;;;;6193966;28;20404;-69
2022/01/22 15:39:16;;;;;;;0.75;0.50;;;19.30;45.10;;;;;;6195234;28;20030;-69
2022/01/22 15:42:17;;;;;;;1.75;0.70;;;19.30;45.10;;;;;;6192862;28;20027;-69
2022/01/22 15:45:23;;;;;;;5.13;0.60;;;19.30;45.00;;;;;;6193820;28;20026;-69
2022/01/22 15:48:24;;;;;;;7.57;0.77;;;19.40;45.00;;;;;;6193532;28;20101;-68
2022/01/22 15:51:25;;;;;;;5.18;0.60;;;19.50;45.10;;;;;;6193355;28;20038;-68
2022/01/22 15:54:26;;;;;;;0.85;0.50;;;19.50;45.10;;;;;;6171105;28;20033;-69
2022/01/22 15:57:27;;;;;;;2.17;0.80;;;19.60;45.20;;;;;;6169556;28;20023;-68
2022/01/22 16:00:33;;;;;;;1.52;0.73;;;19.60;44.90;;;;;;6169628;28;20042;-69
2022/01/22 16:03:35;;;;;;;0.52;0.43;;;19.60;44.60;;;;;;6174869;28;20022;-69
2022/01/22 16:09:46;;;;;;;1.48;0.60;;;19.70;44.80;;;;;;6193308;28;20089;-69
2022/01/22 16:12:48;;;;;;;0.60;0.50;;;19.70;44.80;;;;;;6191771;28;20080;-68
2022/01/22 16:15:49;;;;;;;1.45;0.50;;;19.70;45.20;;;;;;6193177;28;20392;-68
2022/01/22 16:18:50;;;;;;;1.83;0.63;;;19.70;45.10;;;;;;6193674;28;20114;-69
2022/01/22 16:21:52;;;;;;;1.02;0.63;;;19.70;45.00;;;;;;6192426;28;20070;-69
2022/01/22 16:24:58;;;;;;;1.25;0.65;;;19.70;45.00;;;;;;6190203;28;20033;-69
2022/01/22 16:27:59;;;;;;;1.65;0.75;;;19.70;44.90;;;;;;6193294;28;20018;-68
2022/01/22 16:30:59;;;;;;;3.17;0.50;;;19.60;44.80;;;;;;6193215;28;20034;-68
2022/01/22 16:34:02;;;;;;;2.10;1.02;;;19.60;44.70;;;;;;6191595;28;20236;-68
2022/01/22 16:37:02;;;;;;;1.27;0.50;;;19.60;44.80;;;;;;6195243;28;20030;-68
2022/01/22 16:40:06;;;;;;;1.52;0.60;;;19.60;44.80;;;;;;6217202;28;20034;-68
2022/01/22 16:43:08;;;;;;;2.00;0.60;;;19.60;44.80;;;;;;6213230;28;20160;-68
2022/01/22 16:53:23;;;;;;;1.42;0.70;;;19.60;44.80;;;;;;6185335;28;20031;-68
2022/01/22 16:56:15;;;;;;;3.75;1.15;;;19.60;44.40;;;;;;6168680;28;20026;-69
2022/01/22 16:59:19;;;;;;;2.95;1.08;;;19.60;43.60;;;;;;6168836;28;20505;-69
2022/01/22 17:02:20;;;;;;;3.72;1.10;;;19.60;43.70;;;;;;6168058;28;20094;-69
2022/01/22 17:05:21;;;;;;;3.58;1.00;;;19.60;43.70;;;;;;6189005;28;20038;-69
2022/01/22 17:11:39;;;;;;;3.33;1.08;;;19.60;43.40;;;;;;6190837;28;20154;-69
2022/01/22 17:14:41;;;;;;;2.17;1.10;;;19.60;42.90;;;;;;6191172;28;20026;-68
2022/01/22 17:17:41;;;;;;;4.75;1.38;;;19.60;43.30;;;;;;6169845;28;20507;-69
2022/01/22 17:20:42;;;;;;;3.90;1.33;;;19.60;43.20;;;;;;6193795;28;20038;-68
2022/01/22 17:23:42;;;;;;;4.20;1.20;;;19.60;43.40;;;;;;6196516;28;20381;-69
2022/01/22 17:26:43;;;;;;;4.63;1.70;;;19.60;43.30;;;;;;6216736;28;20066;-68
2022/01/22 17:29:46;;;;;;;2.95;1.35;;;19.60;43.50;;;;;;6215164;28;20026;-69
2022/01/22 17:32:47;;;;;;;2.47;1.10;;;19.60;43.60;;;;;;6175049;28;20483;-68
2022/01/22 17:35:48;;;;;;;7.05;1.38;;;19.60;43.70;;;;;;6195421;28;20030;-68
2022/01/22 17:38:50;;;;;;;5.22;1.25;;;19.60;43.90;;;;;;6200678;28;20330;-68
2022/01/22 17:41:52;;;;;;;2.95;0.90;;;19.60;43.80;;;;;;6196111;28;20452;-68
2022/01/22 17:44:57;;;;;;;2.08;1.13;;;19.60;44.00;;;;;;6196315;28;20030;-70
2022/01/22 17:47:57;;;;;;;2.72;1.10;;;19.60;44.00;;;;;;6196440;28;20026;-69
2022/01/22 17:51:00;;;;;;;5.38;1.83;;;19.70;44.10;;;;;;6195697;28;20045;-69
2022/01/22 17:54:00;;;;;;;2.70;1.00;;;19.70;44.10;;;;;;6177205;28;20031;-68
2022/01/22 17:57:02;;;;;;;6.25;1.52;;;19.70;44.20;;;;;;6172117;28;20354;-69
2022/01/22 18:00:05;;;;;;;3.53;1.42;;;19.70;44.10;;;;;;6171373;28;20038;-69
2022/01/22 18:03:06;;;;;;;10.02;1.20;;;19.70;44.30;;;;;;6186437;28;20493;-69
2022/01/22 18:06:07;;;;;;;14.02;1.55;;;19.70;44.40;;;;;;6195944;28;20029;-69
2022/01/22 18:09:07;;;;;;;11.32;1.30;;;19.70;44.30;;;;;;6176594;28;20023;-69